createdAt,value
2023-04-19T00:01:05.548Z,8.10
2023-04-19T00:03:32.357Z,8.10
2023-04-19T00:05:59.302Z,8.10
2023-04-19T00:08:26.324Z,8.10
2023-04-19T00:10:53.051Z,8.20
2023-04-19T00:13:19.978Z,8.10
2023-04-19T00:15:46.637Z,8.10
2023-04-19T00:18:13.307Z,8.10
2023-04-19T00:20:39.951Z,8.00
2023-04-19T00:23:06.624Z,8.10
2023-04-19T00:25:34.683Z,8.10
2023-04-19T00:28:01.386Z,8.10
2023-04-19T00:30:28.048Z,8.10
2023-04-19T00:32:54.717Z,8.10
2023-04-19T00:35:21.385Z,8.10
2023-04-19T00:37:48.048Z,8.10
2023-04-19T00:40:14.750Z,8.10
2023-04-19T00:42:41.873Z,8.10
2023-04-19T00:45:08.968Z,8.10
2023-04-19T00:47:36.254Z,8.10
2023-04-19T00:50:06.750Z,8.10
2023-04-19T00:52:33.793Z,8.00
2023-04-19T00:55:01.457Z,8.00
2023-04-19T00:57:28.443Z,8.00
2023-04-19T00:59:55.422Z,8.00
2023-04-19T01:02:22.355Z,8.00
2023-04-19T01:04:49.175Z,8.00
2023-04-19T01:07:16.120Z,8.00
2023-04-19T01:09:46.262Z,8.00
2023-04-19T01:12:12.906Z,7.90
2023-04-19T01:14:39.649Z,7.80
2023-04-19T01:17:07.365Z,7.70
2023-04-19T01:19:34.933Z,7.70
2023-04-19T01:22:03.901Z,7.70
2023-04-19T01:24:30.679Z,7.70
2023-04-19T01:26:57.346Z,7.70
2023-04-19T01:29:23.956Z,7.70
2023-04-19T01:31:54.067Z,7.60
2023-04-19T01:34:21.014Z,7.60
2023-04-19T01:36:47.620Z,7.50
2023-04-19T01:39:14.188Z,7.60
2023-04-19T01:41:40.793Z,7.60
2023-04-19T01:44:07.660Z,7.60
2023-04-19T01:46:35.079Z,7.60
2023-04-19T01:49:01.713Z,7.70
2023-04-19T01:51:28.326Z,7.60
2023-04-19T01:53:55.010Z,7.50
2023-04-19T01:56:21.980Z,7.40
2023-04-19T01:58:48.530Z,7.30
2023-04-19T02:01:15.194Z,7.30
2023-04-19T02:03:42.098Z,7.20
2023-04-19T02:06:15.223Z,7.20
2023-04-19T02:08:41.985Z,7.10
2023-04-19T02:11:08.843Z,7.10
2023-04-19T02:13:35.484Z,7.00
2023-04-19T02:16:05.965Z,7.10
2023-04-19T02:18:32.815Z,7.00
2023-04-19T02:20:59.550Z,7.00
2023-04-19T02:23:26.235Z,6.90
2023-04-19T02:25:53.469Z,6.90
2023-04-19T02:28:20.167Z,6.80
2023-04-19T02:30:46.756Z,6.90
2023-04-19T02:33:15.173Z,6.80
2023-04-19T02:35:41.731Z,6.70
2023-04-19T02:38:08.360Z,6.80
2023-04-19T02:40:35.089Z,6.90
2023-04-19T02:43:01.707Z,6.90
2023-04-19T02:45:28.308Z,6.80
2023-04-19T02:47:55.180Z,6.80
2023-04-19T02:50:21.785Z,6.80
2023-04-19T02:52:48.438Z,6.80
2023-04-19T02:55:15.088Z,6.70
2023-04-19T02:57:41.654Z,6.70
2023-04-19T03:00:08.999Z,6.60
2023-04-19T03:02:35.884Z,6.50
2023-04-19T03:05:02.703Z,6.50
2023-04-19T03:07:29.622Z,6.50
2023-04-19T03:09:56.194Z,6.40
2023-04-19T03:12:22.813Z,6.50
2023-04-19T03:14:49.440Z,6.50
2023-04-19T03:17:16.423Z,6.60
2023-04-19T03:19:43.067Z,6.50
2023-04-19T03:22:09.614Z,6.50
2023-04-19T03:24:38.027Z,6.50
2023-04-19T03:27:04.891Z,6.50
2023-04-19T03:29:31.503Z,6.30
2023-04-19T03:31:58.081Z,6.30
2023-04-19T03:34:24.675Z,6.30
2023-04-19T03:36:51.256Z,6.40
2023-04-19T03:39:17.938Z,6.40
2023-04-19T03:41:44.684Z,6.40
2023-04-19T03:44:11.383Z,6.30
2023-04-19T03:46:38.060Z,6.30
2023-04-19T03:49:04.820Z,6.40
2023-04-19T03:51:31.660Z,6.40
2023-04-19T03:53:58.312Z,6.30
2023-04-19T03:56:24.959Z,6.30
2023-04-19T03:58:51.746Z,6.20
2023-04-19T04:01:21.869Z,6.20
2023-04-19T04:03:48.795Z,6.20
2023-04-19T04:06:15.778Z,6.20
2023-04-19T04:08:42.427Z,6.20
2023-04-19T04:11:09.121Z,6.20
2023-04-19T04:13:35.719Z,6.20
2023-04-19T04:16:02.405Z,6.20
2023-04-19T04:18:29.073Z,6.20
2023-04-19T04:20:55.689Z,6.20
2023-04-19T04:23:22.689Z,6.20
2023-04-19T04:25:56.105Z,6.20
2023-04-19T04:28:23.408Z,6.20
2023-04-19T04:30:51.823Z,6.30
2023-04-19T04:33:18.553Z,6.30
2023-04-19T04:35:45.172Z,6.30
2023-04-19T04:38:23.500Z,6.20
2023-04-19T04:40:53.674Z,6.20
2023-04-19T04:43:24.111Z,6.20
2023-04-19T04:45:50.822Z,6.30
2023-04-19T04:48:17.534Z,6.30
2023-04-19T04:50:44.273Z,6.30
2023-04-19T04:53:13.131Z,6.30
2023-04-19T04:55:39.927Z,6.30
2023-04-19T04:58:07.046Z,6.20
2023-04-19T05:00:34.096Z,6.20
2023-04-19T05:03:02.143Z,6.20
2023-04-19T05:05:29.074Z,6.20
2023-04-19T05:07:55.652Z,6.20
2023-04-19T05:10:22.421Z,6.20
2023-04-19T05:12:49.038Z,6.30
2023-04-19T05:15:15.676Z,6.30
2023-04-19T05:17:43.204Z,6.30
2023-04-19T05:20:10.025Z,6.30
2023-04-19T05:22:36.982Z,6.40
2023-04-19T05:25:03.787Z,6.40
2023-04-19T05:27:30.396Z,6.40
2023-04-19T05:29:56.988Z,6.30
2023-04-19T05:32:23.609Z,6.30
2023-04-19T05:34:50.212Z,6.40
2023-04-19T05:37:16.837Z,6.40
2023-04-19T05:39:44.652Z,6.50
2023-04-19T05:42:11.493Z,6.60
2023-04-19T05:44:38.120Z,6.70
2023-04-19T05:47:05.388Z,6.70
2023-04-19T05:49:31.977Z,6.70
2023-04-19T05:52:00.561Z,6.80
2023-04-19T05:54:28.021Z,6.90
2023-04-19T05:56:54.717Z,6.90
2023-04-19T05:59:21.361Z,7.00
2023-04-19T06:01:48.054Z,7.00
2023-04-19T06:04:15.279Z,7.00
2023-04-19T06:06:42.386Z,7.10
2023-04-19T06:09:09.048Z,7.40
2023-04-19T06:11:46.963Z,7.40
2023-04-19T06:14:16.803Z,7.50
2023-04-19T06:16:43.656Z,7.50
2023-04-19T06:19:10.275Z,7.60
2023-04-19T06:21:36.974Z,7.70
2023-04-19T06:24:03.715Z,7.80
2023-04-19T06:26:30.544Z,7.90
2023-04-19T06:28:57.109Z,8.10
2023-04-19T06:31:23.986Z,8.20
2023-04-19T06:33:51.014Z,8.20
2023-04-19T06:36:17.674Z,8.30
2023-04-19T06:38:47.275Z,8.50
2023-04-19T06:41:13.973Z,8.60
2023-04-19T06:43:42.659Z,8.70
2023-04-19T06:46:09.992Z,8.90
2023-04-19T06:48:36.725Z,9.00
2023-04-19T06:51:03.457Z,9.10
2023-04-19T06:53:30.215Z,9.10
2023-04-19T06:56:04.343Z,9.10
2023-04-19T06:58:34.549Z,9.30
2023-04-19T07:01:02.906Z,9.30
2023-04-19T07:03:29.743Z,9.30
2023-04-19T07:05:57.008Z,9.40
2023-04-19T07:08:26.201Z,9.40
2023-04-19T07:10:56.579Z,9.50
2023-04-19T07:13:24.108Z,9.60
2023-04-19T07:15:50.897Z,9.80
2023-04-19T07:18:17.552Z,9.70
2023-04-19T07:20:46.647Z,10.00
2023-04-19T07:23:13.259Z,10.10
2023-04-19T07:25:39.885Z,10.20
2023-04-19T07:28:06.585Z,10.30
2023-04-19T07:30:33.596Z,10.40
2023-04-19T07:33:00.334Z,10.50
2023-04-19T07:35:26.904Z,10.60
2023-04-19T07:37:53.531Z,10.70
2023-04-19T07:40:20.211Z,10.80
2023-04-19T07:42:46.798Z,10.90
2023-04-19T07:45:14.525Z,10.90
2023-04-19T07:47:41.115Z,11.00
2023-04-19T07:50:08.467Z,11.00
2023-04-19T07:52:35.062Z,11.10
2023-04-19T07:55:01.844Z,11.20
2023-04-19T07:57:28.524Z,11.30
2023-04-19T07:59:57.985Z,11.40
2023-04-19T08:02:28.216Z,11.50
2023-04-19T08:04:55.067Z,11.50
2023-04-19T08:07:23.418Z,11.50
2023-04-19T08:09:50.044Z,11.60
2023-04-19T08:12:30.951Z,11.60
2023-04-19T08:15:07.735Z,11.80
2023-04-19T08:17:45.326Z,11.90
2023-04-19T08:20:12.523Z,12.00
2023-04-19T08:22:40.931Z,12.10
2023-04-19T08:25:07.869Z,12.20
2023-04-19T08:27:36.057Z,12.20
2023-04-19T08:30:03.427Z,12.40
2023-04-19T08:32:30.156Z,12.50
2023-04-19T08:34:57.459Z,12.60
2023-04-19T08:37:24.225Z,12.80
2023-04-19T08:39:51.094Z,12.90
2023-04-19T08:45:09.489Z,12.90
2023-04-19T08:47:52.052Z,13.10
2023-04-19T08:50:33.450Z,13.30
2023-04-19T08:53:20.816Z,13.50
2023-04-19T08:56:08.459Z,13.50
2023-04-19T09:01:12.874Z,13.50
2023-04-19T09:03:58.544Z,13.60
2023-04-19T09:06:30.019Z,13.70
2023-04-19T09:09:28.809Z,14.10
2023-04-19T09:12:00.449Z,14.00
2023-04-19T09:14:27.554Z,13.80
2023-04-19T09:16:54.479Z,13.70
2023-04-19T09:19:24.661Z,13.70
2023-04-19T09:21:54.147Z,14.00
2023-04-19T09:25:04.340Z,14.70
2023-04-19T09:27:28.528Z,15.10
2023-04-19T09:29:56.215Z,15.70
2023-04-19T09:32:23.433Z,15.90
2023-04-19T09:34:53.236Z,16.20
2023-04-19T09:37:32.969Z,16.20
2023-04-19T09:40:21.545Z,15.70
2023-04-19T09:45:41.968Z,16.20
2023-04-19T09:48:09.059Z,16.60
2023-04-19T09:51:00.786Z,16.50
2023-04-19T09:53:30.946Z,17.10
2023-04-19T09:56:02.158Z,17.60
2023-04-19T09:58:38.269Z,17.10
2023-04-19T10:01:16.372Z,17.80
2023-04-19T10:03:48.719Z,18.90
2023-04-19T10:06:40.040Z,19.60
2023-04-19T10:09:04.669Z,19.40
2023-04-19T10:11:41.542Z,20.20
2023-04-19T10:14:10.957Z,19.60
2023-04-19T10:16:38.461Z,18.70
2023-04-19T10:19:12.196Z,19.50
2023-04-19T10:21:41.025Z,20.70
2023-04-19T10:24:08.539Z,21.40
2023-04-19T10:26:53.952Z,21.50
2023-04-19T10:29:39.217Z,21.50
2023-04-19T10:32:06.195Z,21.50
2023-04-19T10:34:42.214Z,21.70
2023-04-19T10:37:12.129Z,22.20
2023-04-19T10:39:39.267Z,22.70
2023-04-19T10:42:05.880Z,22.80
2023-04-19T10:44:32.552Z,22.80
2023-04-19T10:46:59.270Z,23.50
2023-04-19T10:49:29.070Z,23.50
2023-04-19T10:51:56.113Z,22.60
2023-04-19T10:54:30.901Z,22.20
2023-04-19T10:56:58.484Z,22.10
2023-04-19T10:59:25.195Z,22.20
2023-04-19T11:01:55.563Z,22.40
2023-04-19T11:04:22.356Z,23.00
2023-04-19T11:06:55.252Z,23.60
2023-04-19T11:09:22.925Z,22.80
2023-04-19T11:11:49.695Z,22.40
2023-04-19T11:14:16.902Z,21.80
2023-04-19T11:16:46.195Z,22.30
2023-04-19T11:19:16.723Z,22.60
2023-04-19T11:21:45.466Z,22.60
2023-04-19T11:24:13.006Z,22.60
2023-04-19T11:26:42.335Z,23.20
2023-04-19T11:29:09.364Z,23.40
2023-04-19T11:31:36.212Z,23.20
2023-04-19T11:34:03.194Z,23.20
2023-04-19T11:36:31.854Z,23.10
2023-04-19T11:38:58.540Z,23.20
2023-04-19T11:41:25.251Z,23.00
2023-04-19T11:43:51.862Z,22.70
2023-04-19T11:46:18.525Z,21.30
2023-04-19T11:48:52.565Z,20.90
2023-04-19T11:51:19.319Z,21.10
2023-04-19T11:53:46.434Z,20.70
2023-04-19T11:56:15.091Z,19.60
2023-04-19T11:58:45.444Z,18.90
2023-04-19T12:01:13.158Z,18.20
2023-04-19T12:03:50.443Z,17.30
2023-04-19T12:06:18.519Z,16.40
2023-04-19T12:08:48.805Z,16.00
2023-04-19T12:11:16.278Z,16.20
2023-04-19T12:13:44.436Z,16.40
2023-04-19T12:16:11.958Z,16.50
2023-04-19T12:18:49.891Z,16.30
2023-04-19T12:21:25.726Z,16.00
2023-04-19T12:23:59.631Z,15.60
2023-04-19T12:26:28.800Z,15.70
2023-04-19T12:28:55.629Z,15.90
2023-04-19T12:31:22.417Z,15.80
2023-04-19T12:33:49.408Z,15.80
2023-04-19T12:36:16.139Z,15.50
2023-04-19T12:38:42.820Z,15.30
2023-04-19T12:41:09.490Z,15.20
2023-04-19T12:43:36.064Z,15.00
2023-04-19T12:46:02.746Z,14.80
2023-04-19T12:48:29.373Z,14.70
2023-04-19T12:50:56.048Z,14.90
2023-04-19T12:53:25.692Z,15.00
2023-04-19T12:55:52.335Z,15.10
2023-04-19T12:58:20.939Z,15.20
2023-04-19T13:00:47.526Z,15.50
2023-04-19T13:03:14.225Z,15.80
2023-04-19T13:05:41.015Z,16.40
2023-04-19T13:08:07.596Z,17.20
2023-04-19T13:10:34.208Z,18.20
2023-04-19T13:13:00.915Z,18.80
2023-04-19T13:15:28.650Z,18.60
2023-04-19T13:17:55.513Z,18.60
2023-04-19T13:20:22.181Z,18.90
2023-04-19T13:22:48.799Z,18.90
2023-04-19T13:25:15.442Z,18.60
2023-04-19T13:27:42.100Z,18.50
2023-04-19T13:30:08.901Z,18.00
2023-04-19T13:32:35.641Z,17.70
2023-04-19T13:35:02.324Z,17.40
2023-04-19T13:37:28.902Z,17.50
2023-04-19T13:40:07.046Z,17.10
2023-04-19T13:42:41.797Z,16.70
2023-04-19T13:45:09.519Z,16.40
2023-04-19T13:47:36.565Z,16.30
2023-04-19T13:50:03.346Z,16.00
2023-04-19T13:52:29.936Z,15.70
2023-04-19T13:54:56.519Z,15.60
2023-04-19T13:57:23.140Z,15.30
2023-04-19T13:59:49.694Z,15.10
2023-04-19T14:02:16.478Z,14.90
2023-04-19T14:04:43.193Z,14.70
2023-04-19T14:07:09.917Z,14.60
2023-04-19T14:09:36.991Z,14.40
2023-04-19T14:12:04.493Z,14.30
2023-04-19T14:14:32.508Z,14.20
2023-04-19T14:16:59.177Z,14.00
2023-04-19T14:19:26.211Z,13.90
2023-04-19T14:21:52.876Z,13.80
2023-04-19T14:24:19.442Z,13.80
2023-04-19T14:26:48.713Z,13.70
2023-04-19T14:29:21.043Z,13.70
2023-04-19T14:31:47.669Z,13.90
2023-04-19T14:34:14.379Z,13.90
2023-04-19T14:36:40.987Z,14.00
2023-04-19T14:39:08.413Z,13.80
2023-04-19T14:41:35.055Z,13.60
2023-04-19T14:44:04.897Z,13.50
2023-04-19T14:46:31.496Z,13.50
2023-04-19T14:49:03.330Z,13.40
2023-04-19T14:51:30.885Z,13.30
2023-04-19T14:53:58.227Z,13.10
2023-04-19T14:56:25.187Z,12.80
2023-04-19T14:58:54.820Z,12.70
2023-04-19T15:01:23.197Z,12.50
2023-04-19T15:03:50.157Z,12.50
2023-04-19T15:06:16.889Z,12.30
2023-04-19T15:08:43.439Z,12.10
2023-04-19T15:11:10.405Z,11.90
2023-04-19T15:13:36.962Z,11.70
2023-04-19T15:16:03.956Z,11.60
2023-04-19T15:18:30.826Z,11.20
2023-04-19T15:20:57.400Z,11.00
2023-04-19T15:23:24.466Z,10.60
2023-04-19T15:25:51.480Z,10.30
2023-04-19T15:28:18.420Z,10.00
2023-04-19T15:30:45.396Z,9.70
2023-04-19T15:33:12.050Z,9.50
2023-04-19T15:35:38.667Z,9.60
2023-04-19T15:38:05.826Z,9.60
2023-04-19T15:40:32.437Z,9.60
2023-04-19T15:42:59.026Z,9.40
2023-04-19T15:45:25.766Z,9.40
2023-04-19T15:47:52.406Z,9.50
2023-04-19T15:50:19.080Z,9.30
2023-04-19T15:52:45.700Z,9.30
2023-04-19T15:55:12.308Z,9.20
2023-04-19T15:57:38.906Z,9.20
2023-04-19T16:00:09.197Z,9.00
2023-04-19T16:02:36.008Z,8.90
2023-04-19T16:05:02.810Z,9.00
2023-04-19T16:07:29.414Z,9.20
2023-04-19T16:09:55.980Z,9.30
2023-04-19T16:12:22.657Z,9.30
2023-04-19T16:14:49.279Z,9.30
2023-04-19T16:17:15.864Z,9.50
2023-04-19T16:19:42.424Z,9.50
2023-04-19T16:22:09.001Z,9.60
2023-04-19T16:24:35.828Z,9.70
2023-04-19T16:27:02.658Z,9.70
2023-04-19T16:29:29.281Z,9.70
2023-04-19T16:31:56.283Z,9.80
2023-04-19T16:34:25.327Z,9.80
2023-04-19T16:36:52.651Z,9.80
2023-04-19T16:39:19.315Z,9.80
2023-04-19T16:41:46.076Z,9.80
2023-04-19T16:44:12.693Z,9.80
2023-04-19T16:46:39.490Z,9.80
2023-04-19T16:49:06.486Z,9.80
2023-04-19T16:51:33.236Z,9.70
2023-04-19T16:53:59.818Z,9.70
2023-04-19T16:56:26.475Z,9.70
2023-04-19T16:58:55.936Z,9.50
2023-04-19T17:01:22.934Z,9.40
2023-04-19T17:03:50.206Z,9.40
2023-04-19T17:06:16.941Z,9.30
2023-04-19T17:08:43.553Z,9.40
2023-04-19T17:11:10.504Z,9.20
2023-04-19T17:13:37.706Z,9.10
2023-04-19T17:16:04.474Z,9.20
2023-04-19T17:18:31.094Z,9.30
2023-04-19T17:20:58.363Z,9.20
2023-04-19T17:23:24.971Z,9.10
2023-04-19T17:25:51.570Z,9.00
2023-04-19T17:28:18.165Z,9.00
2023-04-19T17:30:44.776Z,8.90
2023-04-19T17:33:11.498Z,8.70
2023-04-19T17:35:38.115Z,8.50
2023-04-19T17:38:04.754Z,8.50
2023-04-19T17:40:31.356Z,8.50
2023-04-19T17:42:58.045Z,8.50
2023-04-19T17:45:25.031Z,8.50
2023-04-19T17:47:55.780Z,8.50
2023-04-19T17:50:22.783Z,8.50
2023-04-19T17:52:49.387Z,8.50
2023-04-19T17:55:16.157Z,8.40
2023-04-19T17:57:45.255Z,8.40
2023-04-19T18:00:12.127Z,8.40
2023-04-19T18:02:39.469Z,8.40
2023-04-19T18:05:07.428Z,8.40
2023-04-19T18:07:36.317Z,8.40
2023-04-19T18:10:04.010Z,8.40
2023-04-19T18:12:30.887Z,8.50
2023-04-19T18:14:57.516Z,8.40
2023-04-19T18:17:24.317Z,8.40
2023-04-19T18:19:50.969Z,8.40
2023-04-19T18:22:17.758Z,8.50
2023-04-19T18:24:46.779Z,8.50
2023-04-19T18:27:13.844Z,8.60
2023-04-19T18:29:40.769Z,8.50
2023-04-19T18:32:07.395Z,8.60
2023-04-19T18:34:34.008Z,8.50
2023-04-19T18:37:01.811Z,8.60
2023-04-19T18:39:28.736Z,8.60
2023-04-19T18:41:56.992Z,8.60
2023-04-19T18:44:38.953Z,8.50
2023-04-19T18:47:11.374Z,8.50
2023-04-19T18:49:38.027Z,8.60
2023-04-19T18:52:04.885Z,8.50
2023-04-19T18:54:31.479Z,8.50
2023-04-19T18:57:21.753Z,8.60
2023-04-19T18:59:45.798Z,8.60
2023-04-19T19:02:12.494Z,8.90
2023-04-19T19:04:52.308Z,8.60
2023-04-19T19:07:35.783Z,8.60
2023-04-19T19:10:16.077Z,8.50
2023-04-19T19:12:44.772Z,8.50
2023-04-19T19:15:11.505Z,8.60
2023-04-19T19:17:38.438Z,8.50
2023-04-19T19:20:06.718Z,8.60
2023-04-19T19:22:34.135Z,8.70
2023-04-19T19:25:01.153Z,8.70
2023-04-19T19:27:27.829Z,8.60
2023-04-19T19:29:54.491Z,8.60
2023-04-19T19:32:21.402Z,8.50
2023-04-19T19:37:19.340Z,8.50
2023-04-19T19:39:46.583Z,8.60
2023-04-19T19:42:15.662Z,8.50
2023-04-19T19:44:42.402Z,8.50
2023-04-19T19:47:10.491Z,8.60
2023-04-19T19:49:54.248Z,8.70
2023-04-19T19:52:25.359Z,8.60
2023-04-19T19:54:52.204Z,8.50
2023-04-19T19:58:15.594Z,8.40
2023-04-19T20:00:28.155Z,8.40
2023-04-19T20:02:56.664Z,8.60
2023-04-19T20:05:24.207Z,8.60
2023-04-19T20:10:20.647Z,8.40
2023-04-19T20:12:47.206Z,8.40
2023-04-19T20:15:13.893Z,8.50
2023-04-19T20:17:41.115Z,8.50
2023-04-19T20:20:08.924Z,8.50
2023-04-19T20:22:35.718Z,8.50
2023-04-19T20:25:02.385Z,8.50
2023-04-19T20:27:28.999Z,8.50
2023-04-19T20:29:56.357Z,8.50
2023-04-19T20:32:23.089Z,8.50
2023-04-19T20:34:49.740Z,8.50
2023-04-19T20:37:17.412Z,8.50
2023-04-19T20:39:44.062Z,8.50
2023-04-19T20:42:10.668Z,8.50
2023-04-19T20:44:37.359Z,8.40
2023-04-19T20:47:03.966Z,8.40
2023-04-19T20:49:30.596Z,8.40
2023-04-19T20:51:57.191Z,8.30
2023-04-19T20:54:23.839Z,8.40
2023-04-19T20:56:52.376Z,8.30
2023-04-19T20:59:19.364Z,8.30
2023-04-19T21:01:46.099Z,8.30
2023-04-19T21:04:12.937Z,8.30
2023-04-19T21:06:39.569Z,8.40
2023-04-19T21:09:06.162Z,8.40
2023-04-19T21:11:32.727Z,8.40
2023-04-19T21:13:59.391Z,8.40
2023-04-19T21:16:26.075Z,8.30
2023-04-19T21:18:52.781Z,8.40
2023-04-19T21:21:19.359Z,8.40
2023-04-19T21:23:45.982Z,8.40
2023-04-19T21:26:12.614Z,8.30
2023-04-19T21:28:39.330Z,8.40
2023-04-19T21:31:06.046Z,8.40
2023-04-19T21:33:32.844Z,8.40
2023-04-19T21:35:59.426Z,8.30
2023-04-19T21:38:26.047Z,8.40
2023-04-19T21:40:52.723Z,8.40
2023-04-19T21:43:19.348Z,8.30
2023-04-19T21:45:46.076Z,8.30
2023-04-19T21:48:12.687Z,8.30
2023-04-19T21:50:39.356Z,8.30
2023-04-19T21:53:05.952Z,8.30
2023-04-19T21:55:32.646Z,8.30
2023-04-19T21:57:59.451Z,8.20
2023-04-19T22:00:26.059Z,8.30
2023-04-19T22:02:52.887Z,8.30
2023-04-19T22:05:19.633Z,8.30
2023-04-19T22:07:47.361Z,8.30
2023-04-19T22:10:13.974Z,8.20
2023-04-19T22:12:48.271Z,8.20
2023-04-19T22:15:22.148Z,8.20
2023-04-19T22:17:48.819Z,8.10
2023-04-19T22:20:15.981Z,8.00
2023-04-19T22:22:42.547Z,8.00
2023-04-19T22:25:09.304Z,8.20
2023-04-19T22:27:36.186Z,8.20
2023-04-19T22:30:03.349Z,8.20
2023-04-19T22:32:30.019Z,8.30
2023-04-19T22:34:56.603Z,8.20
2023-04-19T22:37:23.168Z,8.30
2023-04-19T22:39:49.820Z,8.20
2023-04-19T22:42:16.411Z,8.30
2023-04-19T22:44:43.089Z,8.30
2023-04-19T22:47:09.656Z,8.40
2023-04-19T22:49:36.264Z,8.40
2023-04-19T22:52:03.061Z,8.40
2023-04-19T22:54:29.632Z,8.40
2023-04-19T22:56:56.572Z,8.40
2023-04-19T22:59:23.124Z,8.30
2023-04-19T23:01:49.828Z,8.30
2023-04-19T23:04:17.098Z,8.40
2023-04-19T23:06:44.180Z,8.40
2023-04-19T23:09:13.562Z,8.40
2023-04-19T23:11:40.744Z,8.50
2023-04-19T23:14:10.337Z,8.50
2023-04-19T23:16:38.551Z,8.30
2023-04-19T23:19:06.686Z,8.30
2023-04-19T23:21:33.694Z,8.30
2023-04-19T23:24:00.380Z,8.30
2023-04-19T23:26:26.991Z,8.30
2023-04-19T23:28:53.661Z,8.40
2023-04-19T23:31:20.298Z,8.30
2023-04-19T23:33:48.268Z,8.40
2023-04-19T23:36:14.876Z,8.30
2023-04-19T23:38:41.688Z,8.30
2023-04-19T23:41:10.787Z,8.30
2023-04-19T23:43:37.479Z,8.30
2023-04-19T23:46:04.145Z,8.30
2023-04-19T23:48:30.820Z,8.50
2023-04-19T23:50:57.420Z,8.50
2023-04-19T23:53:24.047Z,8.50
2023-04-19T23:55:50.818Z,8.50
2023-04-19T23:58:17.434Z,8.50
